Glorious Sakura — 3FOG5 — position and weather

sailwx.info

Track history (hours):
 
Tides and Currents Weather Stations Pressure Air Temp Water Temp Dewpoint Dewpoint Depression Visibility Wind Speed Wind Dir Waves Ship Positions

Glorious Sakura

Last reported at 2018-Mar-28 05:27 UTC. Time now 2018-Apr-20 03:01 UTC.
Position N 41°33' E 141°24'.
Warning: this ship's position is 22 days out of date.

Length 210 m; draft 7.6 m.

Type: Cargo ship. MMSI: 370962000.

Date/timePositionNaut miles runAvg speedWind from/ knotsBaromVisibWave heightAir tempDewpointWater temp
2018-Mar-28 05:27N 41°33' E 141°24'714.1
2018-Mar-28 04:56N 41°34' E 141°14'613.7
2018-Mar-28 04:30N 41°36' E 141°07'713.3
2018-Mar-28 04:00N 41°37' E 140°58'714.3
2018-Mar-28 03:30N 41°35' E 140°49'714.1
2018-Mar-28 03:00N 41°31' E 140°41'815.4
2018-Mar-28 02:29N 41°27' E 140°32'715.3
2018-Mar-28 02:00N 41°23' E 140°23'814.9
2018-Mar-28 01:28N 41°18' E 140°14'814.9
2018-Mar-28 00:54N 41°17' E 140°03'614.4
2018-Mar-28 00:31N 41°17' E 139°56'713.7
2018-Mar-27 23:59N 41°18' E 139°46'712.5
2018-Mar-27 23:27N 41°20' E 139°38'512.3
2018-Mar-27 23:00N 41°22' E 139°31'612.1
2018-Mar-27 22:30N 41°24' E 139°24'612.5
2018-Mar-27 22:01N 41°26' E 139°16'911.1
2018-Mar-27 21:12N 41°35' E 139°15'212.3
2018-Mar-27 21:00N 41°38' E 139°15'2912.7
2018-Mar-27 18:44N 42°06' E 139°17'  
2018-Mar-20 19:24N 34°54' E 130°44'2 3.1
2018-Mar-20 18:48N 34°53' E 130°43'1 2.9
2018-Mar-20 18:28N 34°53' E 130°42'2 2.9
2018-Mar-20 17:55N 34°52' E 130°40'7 3.1
2018-Mar-20 15:44N 34°47' E 130°34'6 2.9
2018-Mar-20 13:33N 34°43' E 130°28'1 3.0
2018-Mar-20 13:17N 34°42' E 130°28'1 2.7
2018-Mar-20 12:50N 34°41' E 130°27'1 2.9
2018-Mar-20 12:28N 34°40' E 130°26'6 2.5
2018-Mar-20 10:00N 34°36' E 130°21'4 2.5
2018-Mar-20 08:18N 34°33' E 130°18'1 2.5
2018-Mar-20 07:55N 34°32' E 130°17'1 2.3
2018-Mar-20 07:31N 34°32' E 130°16'1 2.0
2018-Mar-20 07:00N 34°31' E 130°15'1 2.7
2018-Mar-20 06:28N 34°30' E 130°13'1 3.2
2018-Mar-20 06:00N 34°29' E 130°12'1 3.0
2018-Mar-20 05:30N 34°28' E 130°11'1 2.7
2018-Mar-20 05:01N 34°27' E 130°10'1 2.8
2018-Mar-20 04:30N 34°26' E 130°09'1 2.9
2018-Mar-20 04:00N 34°25' E 130°07'2 3.1
2018-Mar-20 03:30N 34°24' E 130°06'1 2.7
2018-Mar-20 03:00N 34°24' E 130°05'1 2.8
2018-Mar-20 02:30N 34°23' E 130°03'1 2.6
2018-Mar-20 02:00N 34°22' E 130°02'1 2.3
2018-Mar-20 01:30N 34°21' E 130°01'1 2.4
2018-Mar-20 01:00N 34°21' E 129°60'2 2.9
2018-Mar-20 00:29N 34°20' E 129°58'1 2.3
2018-Mar-20 00:00N 34°19' E 129°57'1 2.4
2018-Mar-19 23:30N 34°18' E 129°56'1 2.1
2018-Mar-19 22:59N 34°17' E 129°56'1 1.9
2018-Mar-19 22:27N 34°16' E 129°55'1 1.5
2018-Mar-19 21:58N 34°16' E 129°54'  
Track history (hours):
 
Tides and Currents Weather Stations Pressure Air Temp Water Temp Dewpoint Dewpoint Depression Visibility Wind Speed Wind Dir Waves Ship Positions

Glorious Sakura

Last reported at 2018-Mar-28 05:27 UTC. Time now 2018-Apr-20 03:01 UTC.
Position N 41°33' E 141°24'.
Warning: this ship's position is 22 days out of date.

Length 210 m; draft 7.6 m.

Type: Cargo ship. MMSI: 370962000.

Date/timePositionNaut miles runAvg speedWind from/ knotsBaromVisibWave heightAir tempDewpointWater temp
2018-Mar-28 05:27N 41°33' E 141°24'714.1
2018-Mar-28 04:56N 41°34' E 141°14'613.7
2018-Mar-28 04:30N 41°36' E 141°07'713.3
2018-Mar-28 04:00N 41°37' E 140°58'714.3
2018-Mar-28 03:30N 41°35' E 140°49'714.1
2018-Mar-28 03:00N 41°31' E 140°41'815.4
2018-Mar-28 02:29N 41°27' E 140°32'715.3
2018-Mar-28 02:00N 41°23' E 140°23'814.9
2018-Mar-28 01:28N 41°18' E 140°14'814.9
2018-Mar-28 00:54N 41°17' E 140°03'614.4
2018-Mar-28 00:31N 41°17' E 139°56'713.7
2018-Mar-27 23:59N 41°18' E 139°46'712.5
2018-Mar-27 23:27N 41°20' E 139°38'512.3
2018-Mar-27 23:00N 41°22' E 139°31'612.1
2018-Mar-27 22:30N 41°24' E 139°24'612.5
2018-Mar-27 22:01N 41°26' E 139°16'911.1
2018-Mar-27 21:12N 41°35' E 139°15'212.3
2018-Mar-27 21:00N 41°38' E 139°15'2912.7
2018-Mar-27 18:44N 42°06' E 139°17'  
2018-Mar-20 19:24N 34°54' E 130°44'2 3.1
2018-Mar-20 18:48N 34°53' E 130°43'1 2.9
2018-Mar-20 18:28N 34°53' E 130°42'2 2.9
2018-Mar-20 17:55N 34°52' E 130°40'7 3.1
2018-Mar-20 15:44N 34°47' E 130°34'6 2.9
2018-Mar-20 13:33N 34°43' E 130°28'1 3.0
2018-Mar-20 13:17N 34°42' E 130°28'1 2.7
2018-Mar-20 12:50N 34°41' E 130°27'1 2.9
2018-Mar-20 12:28N 34°40' E 130°26'6 2.5
2018-Mar-20 10:00N 34°36' E 130°21'4 2.5
2018-Mar-20 08:18N 34°33' E 130°18'1 2.5
2018-Mar-20 07:55N 34°32' E 130°17'1 2.3
2018-Mar-20 07:31N 34°32' E 130°16'1 2.0
2018-Mar-20 07:00N 34°31' E 130°15'1 2.7
2018-Mar-20 06:28N 34°30' E 130°13'1 3.2
2018-Mar-20 06:00N 34°29' E 130°12'1 3.0
2018-Mar-20 05:30N 34°28' E 130°11'1 2.7
2018-Mar-20 05:01N 34°27' E 130°10'1 2.8
2018-Mar-20 04:30N 34°26' E 130°09'1 2.9
2018-Mar-20 04:00N 34°25' E 130°07'2 3.1
2018-Mar-20 03:30N 34°24' E 130°06'1 2.7
2018-Mar-20 03:00N 34°24' E 130°05'1 2.8
2018-Mar-20 02:30N 34°23' E 130°03'1 2.6
2018-Mar-20 02:00N 34°22' E 130°02'1 2.3
2018-Mar-20 01:30N 34°21' E 130°01'1 2.4
2018-Mar-20 01:00N 34°21' E 129°60'2 2.9
2018-Mar-20 00:29N 34°20' E 129°58'1 2.3
2018-Mar-20 00:00N 34°19' E 129°57'1 2.4
2018-Mar-19 23:30N 34°18' E 129°56'1 2.1
2018-Mar-19 22:59N 34°17' E 129°56'1 1.9
2018-Mar-19 22:27N 34°16' E 129°55'1 1.5
2018-Mar-19 21:58N 34°16' E 129°54'  

Dump ship's entire track history